createdAt,value
2023-04-13T00:01:16.231Z,99669.06
2023-04-13T00:03:43.276Z,99671.00
2023-04-13T00:06:11.348Z,99662.47
2023-04-13T00:08:38.880Z,99662.00
2023-04-13T00:11:07.903Z,99667.34
2023-04-13T00:13:41.288Z,99675.13
2023-04-13T00:16:10.021Z,99675.78
2023-04-13T00:18:37.158Z,99686.44
2023-04-13T00:21:04.191Z,99678.72
2023-04-13T00:23:32.107Z,99693.22
2023-04-13T00:26:01.749Z,99687.75
2023-04-13T00:28:29.824Z,99697.31
2023-04-13T00:30:59.158Z,99699.41
2023-04-13T00:33:26.204Z,99694.41
2023-04-13T00:35:53.186Z,99691.47
2023-04-13T00:38:19.977Z,99707.97
2023-04-13T00:40:46.891Z,99705.41
2023-04-13T00:43:13.858Z,99700.25
2023-04-13T00:45:41.574Z,99710.44
2023-04-13T00:48:12.377Z,99707.84
2023-04-13T00:50:41.633Z,99710.44
2023-04-13T00:53:11.272Z,99707.09
2023-04-13T00:55:39.582Z,99719.50
2023-04-13T00:58:06.700Z,99720.78
2023-04-13T01:00:33.707Z,99738.91
2023-04-13T01:03:02.600Z,99737.78
2023-04-13T01:05:51.942Z,99728.41
2023-04-13T01:08:24.195Z,99737.81
2023-04-13T01:10:58.792Z,99732.00
2023-04-13T01:13:42.503Z,99735.56
2023-04-13T01:16:19.303Z,99733.63
2023-04-13T01:18:52.578Z,99734.75
2023-04-13T01:21:26.163Z,99742.34
2023-04-13T01:24:11.600Z,99748.19
2023-04-13T01:26:59.037Z,99745.59
2023-04-13T01:29:27.632Z,99746.06
2023-04-13T01:31:56.027Z,99741.22
2023-04-13T01:34:25.386Z,99745.91
2023-04-13T01:36:53.332Z,99745.09
2023-04-13T01:39:21.311Z,99748.03
2023-04-13T01:41:56.241Z,99762.88
2023-04-13T01:44:23.649Z,99754.13
2023-04-13T01:46:55.328Z,99754.78
2023-04-13T01:49:45.148Z,99758.50
2023-04-13T01:52:28.154Z,99759.47
2023-04-13T01:54:56.708Z,99755.91
2023-04-13T01:57:25.404Z,99765.28
2023-04-13T01:59:52.525Z,99769.34
2023-04-13T02:02:21.245Z,99772.53
2023-04-13T02:04:48.659Z,99771.13
2023-04-13T02:07:16.442Z,99772.25
2023-04-13T02:09:47.510Z,99780.47
2023-04-13T02:12:16.865Z,99791.47
2023-04-13T02:14:43.762Z,99785.81
2023-04-13T02:17:11.591Z,99796.81
2023-04-13T02:19:40.216Z,99792.28
2023-04-13T02:22:07.424Z,99795.69
2023-04-13T02:24:34.600Z,99798.06
2023-04-13T02:27:02.241Z,99801.97
2023-04-13T02:29:29.827Z,99800.81
2023-04-13T02:31:56.743Z,99786.28
2023-04-13T02:34:23.950Z,99794.19
2023-04-13T02:36:50.885Z,99787.09
2023-04-13T02:39:18.425Z,99792.38
2023-04-13T02:41:45.292Z,99790.09
2023-04-13T02:44:18.259Z,99788.50
2023-04-13T02:46:52.601Z,99792.06
2023-04-13T02:49:19.679Z,99798.03
2023-04-13T02:52:13.032Z,99793.03
2023-04-13T02:54:54.509Z,99798.53
2023-04-13T02:57:25.270Z,99801.91
2023-04-13T02:59:54.212Z,99797.84
2023-04-13T03:02:26.625Z,99800.00
2023-04-13T03:04:55.066Z,99799.84
2023-04-13T03:07:24.627Z,99798.06
2023-04-13T03:09:53.267Z,99795.16
2023-04-13T03:12:20.405Z,99808.09
2023-04-13T03:14:49.955Z,99803.38
2023-04-13T03:17:19.972Z,99806.47
2023-04-13T03:19:49.208Z,99809.22
2023-04-13T03:22:17.944Z,99803.72
2023-04-13T03:24:46.569Z,99800.84
2023-04-13T03:27:21.506Z,99799.56
2023-04-13T03:29:50.191Z,99804.25
2023-04-13T03:32:21.853Z,99809.41
2023-04-13T03:34:55.692Z,99802.47
2023-04-13T03:37:22.580Z,99819.91
2023-04-13T03:39:49.555Z,99817.03
2023-04-13T03:42:20.714Z,99832.19
2023-04-13T03:44:56.325Z,99838.50
2023-04-13T03:47:23.888Z,99846.09
2023-04-13T03:49:51.119Z,99863.03
2023-04-13T03:52:18.113Z,99863.69
2023-04-13T03:54:52.323Z,99869.97
2023-04-13T03:57:22.063Z,99866.75
2023-04-13T03:59:50.528Z,99876.25
2023-04-13T04:02:27.812Z,99880.78
2023-04-13T04:04:54.941Z,99884.03
2023-04-13T04:07:23.741Z,99881.28
2023-04-13T04:09:51.402Z,99888.88
2023-04-13T04:12:21.216Z,99886.16
2023-04-13T04:14:48.151Z,99888.56
2023-04-13T04:17:19.665Z,99894.91
2023-04-13T04:19:47.058Z,99889.28
2023-04-13T04:22:15.628Z,99899.63
2023-04-13T04:24:42.887Z,99902.22
2023-04-13T04:27:09.850Z,99901.53
2023-04-13T04:29:36.848Z,99907.75
2023-04-13T04:32:18.750Z,99917.69
2023-04-13T04:34:47.091Z,99918.59
2023-04-13T04:37:21.428Z,99916.53
2023-04-13T04:40:09.843Z,99928.56
2023-04-13T04:42:38.095Z,99933.56
2023-04-13T04:45:15.191Z,99929.72
2023-04-13T04:47:45.451Z,99936.94
2023-04-13T04:50:19.845Z,99930.00
2023-04-13T04:52:52.367Z,99931.41
2023-04-13T04:55:23.089Z,99933.50
2023-04-13T04:57:50.098Z,99939.91
2023-04-13T05:00:19.180Z,99938.06
2023-04-13T05:03:01.042Z,99945.03
2023-04-13T05:05:30.330Z,99943.53
2023-04-13T05:08:01.456Z,99944.06
2023-04-13T05:10:29.708Z,99952.56
2023-04-13T05:12:58.274Z,99952.44
2023-04-13T05:15:26.945Z,99955.53
2023-04-13T05:17:55.227Z,99955.09
2023-04-13T05:20:23.366Z,99951.72
2023-04-13T05:22:55.285Z,99958.66
2023-04-13T05:25:22.270Z,99961.75
2023-04-13T05:27:49.891Z,99968.88
2023-04-13T05:30:17.829Z,99961.28
2023-04-13T05:32:44.899Z,99959.75
2023-04-13T05:35:11.981Z,99959.78
2023-04-13T05:37:40.206Z,99964.66
2023-04-13T05:40:14.774Z,99954.81
2023-04-13T05:42:43.556Z,99958.19
2023-04-13T05:45:17.253Z,99951.97
2023-04-13T05:48:04.915Z,99949.09
2023-04-13T05:50:32.205Z,99945.50
2023-04-13T05:52:59.239Z,99944.38
2023-04-13T05:55:31.166Z,99943.56
2023-04-13T05:58:03.965Z,99936.44
2023-04-13T06:00:31.097Z,99948.28
2023-04-13T06:03:04.235Z,99947.09
2023-04-13T06:05:33.112Z,99939.97
2023-04-13T06:08:00.120Z,99942.16
2023-04-13T06:10:27.254Z,99949.28
2023-04-13T06:12:54.965Z,99946.09
2023-04-13T06:15:22.116Z,99951.88
2023-04-13T06:17:52.899Z,99951.22
2023-04-13T06:20:21.676Z,99947.19
2023-04-13T06:22:49.502Z,99951.41
2023-04-13T06:25:19.718Z,99957.53
2023-04-13T06:27:49.845Z,99966.16
2023-04-13T06:30:18.299Z,99971.56
2023-04-13T06:32:46.167Z,99973.75
2023-04-13T06:35:17.500Z,99980.53
2023-04-13T06:37:48.115Z,99966.59
2023-04-13T06:40:22.122Z,99979.84
2023-04-13T06:42:59.286Z,99972.19
2023-04-13T06:45:38.477Z,99975.03
2023-04-13T06:48:09.241Z,99974.66
2023-04-13T06:50:38.287Z,99982.19
2023-04-13T06:53:07.013Z,99980.13
2023-04-13T06:55:34.548Z,99985.78
2023-04-13T06:58:01.519Z,99985.03
2023-04-13T07:00:31.753Z,99986.66
2023-04-13T07:03:01.954Z,99988.97
2023-04-13T07:05:30.006Z,99985.84
2023-04-13T07:08:03.966Z,99997.44
2023-04-13T07:10:31.215Z,100008.53
2023-04-13T07:13:03.306Z,99996.59
2023-04-13T07:15:31.748Z,99998.75
2023-04-13T07:17:58.920Z,100001.53
2023-04-13T07:20:26.992Z,100004.56
2023-04-13T07:22:54.282Z,100005.66
2023-04-13T07:25:21.897Z,100004.66
2023-04-13T07:40:24.743Z,100010.56
2023-04-13T07:42:55.902Z,100012.69
2023-04-13T07:45:23.243Z,100004.19
2023-04-13T07:47:53.583Z,99996.53
2023-04-13T07:50:20.930Z,99998.31
2023-04-13T07:52:48.061Z,99997.25
2023-04-13T07:55:17.777Z,100002.78
2023-04-13T07:57:47.916Z,100002.78
2023-04-13T08:00:17.064Z,100001.75
2023-04-13T08:02:47.978Z,100003.41
2023-04-13T08:05:19.726Z,100004.22
2023-04-13T08:07:49.150Z,99994.84
2023-04-13T08:10:16.507Z,99998.91
2023-04-13T08:12:43.863Z,99995.88
2023-04-13T08:15:12.695Z,99992.16
2023-04-13T08:17:39.784Z,99998.06
2023-04-13T08:20:08.452Z,99994.59
2023-04-13T08:22:36.823Z,99992.38
2023-04-13T08:25:07.368Z,99990.13
2023-04-13T08:27:35.174Z,99998.66
2023-04-13T08:30:03.587Z,99991.31
2023-04-13T08:32:41.421Z,99994.63
2023-04-13T08:35:09.803Z,99994.38
2023-04-13T08:37:36.995Z,99984.06
2023-04-13T08:40:07.917Z,99985.19
2023-04-13T08:42:35.578Z,99983.72
2023-04-13T08:45:04.054Z,99985.28
2023-04-13T08:47:31.729Z,99983.00
2023-04-13T08:50:00.816Z,99974.00
2023-04-13T08:52:54.291Z,99973.38
2023-04-13T08:55:22.803Z,99974.84
2023-04-13T08:57:53.340Z,99977.13
2023-04-13T09:00:22.018Z,99976.56
2023-04-13T09:03:04.947Z,99974.63
2023-04-13T09:05:37.830Z,99968.72
2023-04-13T09:08:08.098Z,99970.97
2023-04-13T09:10:37.875Z,99978.69
2023-04-13T09:13:05.962Z,99970.38
2023-04-13T09:15:33.050Z,99969.63
2023-04-13T09:18:12.671Z,99972.25
2023-04-13T09:20:58.365Z,99958.69
2023-04-13T09:23:26.194Z,99966.94
2023-04-13T09:26:07.315Z,99966.59
2023-04-13T09:28:34.307Z,99962.44
2023-04-13T09:31:05.698Z,99968.53
2023-04-13T09:33:43.897Z,99963.25
2023-04-13T09:36:12.375Z,99966.94
2023-04-13T09:38:39.365Z,99961.78
2023-04-13T09:41:08.051Z,99958.38
2023-04-13T09:43:38.929Z,99958.72
2023-04-13T09:46:13.041Z,99960.44
2023-04-13T09:48:40.473Z,99954.75
2023-04-13T09:51:08.753Z,99958.91
2023-04-13T09:53:48.514Z,99984.38
2023-04-13T09:56:17.111Z,99983.66
2023-04-13T09:58:45.864Z,99991.88
2023-04-13T10:01:16.335Z,99977.94
2023-04-13T10:06:10.906Z,99981.84
2023-04-13T10:08:42.823Z,99994.81
2023-04-13T10:11:14.901Z,99984.91
2023-04-13T10:13:55.538Z,99987.53
2023-04-13T10:16:41.275Z,99999.22
2023-04-13T10:19:18.426Z,99995.84
2023-04-13T10:21:47.814Z,100005.91
2023-04-13T10:24:15.881Z,100012.22
2023-04-13T10:26:46.055Z,100013.41
2023-04-13T10:29:14.994Z,100004.56
2023-04-13T10:31:47.132Z,99993.53
2023-04-13T10:34:28.261Z,100006.34
2023-04-13T10:36:56.371Z,100004.44
2023-04-13T10:39:28.323Z,100012.53
2023-04-13T10:42:08.294Z,100002.34
2023-04-13T10:44:54.146Z,100001.50
2023-04-13T10:47:32.380Z,99994.31
2023-04-13T10:50:01.240Z,99994.78
2023-04-13T10:52:28.449Z,99986.50
2023-04-13T10:54:55.719Z,99981.88
2023-04-13T10:57:22.633Z,99983.75
2023-04-13T10:59:59.150Z,99985.63
2023-04-13T11:02:32.236Z,99992.19
2023-04-13T11:05:01.270Z,99993.22
2023-04-13T11:07:28.958Z,99983.38
2023-04-13T11:12:30.125Z,99975.81
2023-04-13T11:14:56.974Z,99970.63
2023-04-13T11:17:24.057Z,99966.53
2023-04-13T11:19:52.939Z,99973.34
2023-04-13T11:22:23.780Z,99968.94
2023-04-13T11:24:51.805Z,99964.59
2023-04-13T11:27:25.012Z,99963.69
2023-04-13T11:29:58.856Z,99956.31
2023-04-13T11:32:26.378Z,99967.44
2023-04-13T11:34:53.801Z,99965.41
2023-04-13T11:37:20.826Z,99957.31
2023-04-13T11:39:47.978Z,99954.53
2023-04-13T11:42:14.857Z,99949.41
2023-04-13T11:44:45.799Z,99946.88
2023-04-13T11:47:16.000Z,99953.59
2023-04-13T11:49:48.046Z,99956.69
2023-04-13T11:52:15.831Z,99957.41
2023-04-13T11:54:43.273Z,99966.31
2023-04-13T11:57:11.023Z,99961.06
2023-04-13T11:59:38.835Z,99960.84
2023-04-13T12:02:13.408Z,99950.66
2023-04-13T12:04:49.304Z,99951.41
2023-04-13T12:07:16.891Z,99950.34
2023-04-13T12:15:10.667Z,99942.56
2023-04-13T12:17:49.429Z,99953.31
2023-04-13T12:20:17.459Z,99939.34
2023-04-13T12:22:55.086Z,99943.66
2023-04-13T12:28:00.234Z,99950.88
2023-04-13T12:30:27.749Z,99939.69
2023-04-13T12:32:56.356Z,99930.34
2023-04-13T12:35:23.460Z,99927.97
2023-04-13T12:37:50.664Z,99937.72
2023-04-13T12:40:18.527Z,99937.13
2023-04-13T12:42:46.955Z,99925.19
2023-04-13T12:45:15.384Z,99940.41
2023-04-13T12:47:43.201Z,99933.00
2023-04-13T12:50:11.562Z,99926.34
2023-04-13T12:52:42.993Z,99919.13
2023-04-13T12:55:10.502Z,99925.75
2023-04-13T12:57:37.433Z,99928.25
2023-04-13T13:00:09.874Z,99927.38
2023-04-13T13:02:38.136Z,99927.47
2023-04-13T13:05:05.554Z,99925.06
2023-04-13T13:07:32.802Z,99930.53
2023-04-13T13:10:01.259Z,99933.13
2023-04-13T13:12:30.270Z,99934.09
2023-04-13T13:14:58.662Z,99930.06
2023-04-13T13:17:25.718Z,99933.06
2023-04-13T13:19:52.968Z,99938.91
2023-04-13T13:22:20.572Z,99919.06
2023-04-13T13:24:47.659Z,99927.44
2023-04-13T13:27:50.671Z,99929.69
2023-04-13T13:30:03.587Z,99929.88
2023-04-13T13:32:31.029Z,99917.88
2023-04-13T13:34:58.199Z,99911.69
2023-04-13T13:37:25.279Z,99921.44
2023-04-13T13:39:52.253Z,99919.72
2023-04-13T13:42:19.114Z,99919.22
2023-04-13T13:44:46.376Z,99928.06
2023-04-13T13:47:14.260Z,99920.66
2023-04-13T13:49:44.845Z,99920.72
2023-04-13T13:52:26.644Z,99915.44
2023-04-13T13:54:55.506Z,99916.00
2023-04-13T13:57:22.393Z,99938.16
2023-04-13T13:59:49.496Z,99920.97
2023-04-13T14:02:16.610Z,99923.19
2023-04-13T14:04:43.801Z,99925.31
2023-04-13T14:07:10.664Z,99921.28
2023-04-13T14:09:37.618Z,99934.47
2023-04-13T14:12:05.035Z,99919.06
2023-04-13T14:14:32.006Z,99919.09
2023-04-13T14:16:58.991Z,99916.38
2023-04-13T14:19:25.898Z,99917.56
2023-04-13T14:21:56.766Z,99918.34
2023-04-13T14:24:26.185Z,99922.53
2023-04-13T14:26:53.546Z,99935.06
2023-04-13T14:29:20.455Z,99917.66
2023-04-13T14:31:47.557Z,99920.41
2023-04-13T14:34:14.606Z,99910.75
2023-04-13T14:36:42.354Z,99914.56
2023-04-13T14:39:09.184Z,99928.41
2023-04-13T14:41:36.645Z,99914.94
2023-04-13T14:44:03.614Z,99926.63
2023-04-13T14:46:30.602Z,99911.28
2023-04-13T14:48:57.603Z,99932.19
2023-04-13T14:51:24.814Z,99927.00
2023-04-13T14:53:56.357Z,99931.25
2023-04-13T14:56:23.996Z,99929.78
2023-04-13T14:58:50.916Z,99934.25
2023-04-13T15:01:19.662Z,99931.81
2023-04-13T15:03:47.274Z,99939.38
2023-04-13T15:06:14.939Z,99940.47
2023-04-13T15:08:41.883Z,99941.31
2023-04-13T15:11:09.090Z,99935.69
2023-04-13T15:13:37.328Z,99929.59
2023-04-13T15:16:07.890Z,99940.91
2023-04-13T15:18:34.932Z,99943.25
2023-04-13T15:21:02.818Z,99946.75
2023-04-13T15:23:29.978Z,99953.59
2023-04-13T15:25:57.229Z,99956.56
2023-04-13T15:28:24.237Z,99961.19
2023-04-13T15:30:52.970Z,99955.88
2023-04-13T15:33:19.949Z,99953.44
2023-04-13T15:35:46.957Z,99948.16
2023-04-13T15:38:13.943Z,99948.59
2023-04-13T15:40:40.903Z,99941.25
2023-04-13T15:43:07.918Z,99952.66
2023-04-13T15:45:35.129Z,99939.19
2023-04-13T15:48:02.948Z,99940.78
2023-04-13T15:50:29.911Z,99933.53
2023-04-13T15:52:57.181Z,99942.84
2023-04-13T15:55:24.570Z,99935.00
2023-04-13T15:57:53.931Z,99936.75
2023-04-13T16:00:21.058Z,99926.28
2023-04-13T16:02:47.988Z,99929.16
2023-04-13T16:05:15.463Z,99922.00
2023-04-13T16:07:42.372Z,99926.28
2023-04-13T16:10:15.811Z,99915.56
2023-04-13T16:12:43.839Z,99932.13
2023-04-13T16:15:12.195Z,99919.69
2023-04-13T16:17:43.665Z,99926.50
2023-04-13T16:20:14.400Z,99925.91
2023-04-13T16:22:43.128Z,99932.13
2023-04-13T16:25:11.428Z,99936.81
2023-04-13T16:27:38.662Z,99928.31
2023-04-13T16:30:08.020Z,99939.25
2023-04-13T16:32:35.104Z,99940.19
2023-04-13T16:35:02.138Z,99936.72
2023-04-13T16:37:29.043Z,99942.72
2023-04-13T16:39:56.118Z,99942.44
2023-04-13T16:42:23.176Z,99943.25
2023-04-13T16:44:50.048Z,99933.50
2023-04-13T16:47:18.097Z,99940.59
2023-04-13T16:49:45.117Z,99941.66
2023-04-13T16:52:12.724Z,99949.94
2023-04-13T16:54:43.614Z,99946.38
2023-04-13T16:57:11.691Z,99955.00
2023-04-13T16:59:38.646Z,99946.94
2023-04-13T17:02:05.925Z,99947.97
2023-04-13T17:04:33.045Z,99942.53
2023-04-13T17:07:04.077Z,99956.63
2023-04-13T17:09:30.918Z,99952.00
2023-04-13T17:11:58.253Z,99955.69
2023-04-13T17:14:25.789Z,99940.09
2023-04-13T17:16:52.702Z,99955.75
2023-04-13T17:19:19.620Z,99954.94
2023-04-13T17:21:46.454Z,99948.34
2023-04-13T17:24:13.393Z,99956.63
2023-04-13T17:26:40.807Z,99960.34
2023-04-13T17:29:08.353Z,99966.19
2023-04-13T17:31:35.216Z,99963.19
2023-04-13T17:34:02.084Z,99963.50
2023-04-13T17:36:28.954Z,99969.59
2023-04-13T17:38:55.896Z,99975.75
2023-04-13T17:41:22.740Z,99977.50
2023-04-13T17:43:49.636Z,99973.53
2023-04-13T17:46:16.510Z,99974.88
2023-04-13T17:48:43.432Z,99983.09
2023-04-13T17:51:13.015Z,99978.75
2023-04-13T17:53:39.971Z,99978.00
2023-04-13T17:56:07.087Z,99980.41
2023-04-13T17:58:34.744Z,99967.34
2023-04-13T18:01:11.712Z,99967.16
2023-04-13T18:03:39.250Z,99983.72
2023-04-13T18:06:06.956Z,99982.09
2023-04-13T18:08:33.819Z,99990.72
2023-04-13T18:11:00.867Z,99985.53
2023-04-13T18:13:28.767Z,99989.44
2023-04-13T18:15:56.177Z,99990.13
2023-04-13T18:18:25.989Z,99997.72
2023-04-13T18:20:53.073Z,100001.28
2023-04-13T18:23:21.541Z,100006.88
2023-04-13T18:25:49.456Z,100001.03
2023-04-13T18:28:17.256Z,100005.41
2023-04-13T18:30:45.136Z,99998.88
2023-04-13T18:33:12.725Z,99998.53
2023-04-13T18:35:43.508Z,99999.13
2023-04-13T18:38:10.631Z,99999.94
2023-04-13T18:40:37.687Z,100006.75
2023-04-13T18:43:04.531Z,100005.47
2023-04-13T18:45:31.490Z,100002.59
2023-04-13T18:47:58.471Z,99998.00
2023-04-13T18:50:26.687Z,100003.66
2023-04-13T18:52:53.736Z,100000.47
2023-04-13T18:55:20.751Z,100002.66
2023-04-13T18:57:47.814Z,100002.78
2023-04-13T19:00:15.776Z,100003.66
2023-04-13T19:02:46.439Z,100005.88
2023-04-13T19:05:13.679Z,100002.97
2023-04-13T19:07:40.848Z,99996.13
2023-04-13T19:10:07.957Z,100001.97
2023-04-13T19:12:35.034Z,100001.16
2023-04-13T19:15:03.116Z,99999.47
2023-04-13T19:17:30.200Z,99992.50
2023-04-13T19:19:57.313Z,99988.78
2023-04-13T19:22:24.952Z,99990.59
2023-04-13T19:24:51.868Z,99988.22
2023-04-13T19:27:18.677Z,99984.72
2023-04-13T19:41:55.664Z,99961.19
2023-04-13T19:44:22.518Z,99969.09
2023-04-13T19:46:49.429Z,99964.03
2023-04-13T19:49:16.658Z,99964.19
2023-04-13T19:51:44.144Z,99953.56
2023-04-13T19:54:11.100Z,99956.00
2023-04-13T19:56:38.187Z,99958.69
2023-04-13T19:59:06.049Z,99965.06
2023-04-13T20:01:34.072Z,99957.88
2023-04-13T20:04:03.972Z,99967.78
2023-04-13T20:06:33.130Z,99962.44
2023-04-13T20:09:09.032Z,99962.31
2023-04-13T20:11:36.095Z,99948.09
2023-04-13T20:14:04.235Z,99945.19
2023-04-13T20:16:31.657Z,99950.84
2023-04-13T20:18:58.758Z,99947.81
2023-04-13T20:21:26.633Z,99947.53
2023-04-13T20:23:53.548Z,99943.03
2023-04-13T20:26:22.618Z,99943.06
2023-04-13T20:28:49.508Z,99933.38
2023-04-13T20:31:16.440Z,99940.03
2023-04-13T20:33:45.387Z,99941.47
2023-04-13T20:36:12.312Z,99935.16
2023-04-13T20:38:42.755Z,99930.81
2023-04-13T20:41:10.874Z,99934.38
2023-04-13T20:43:37.774Z,99937.91
2023-04-13T20:46:04.683Z,99929.63
2023-04-13T20:51:01.830Z,99931.94
2023-04-13T20:53:28.784Z,99939.88
2023-04-13T20:55:55.746Z,99937.31
2023-04-13T20:58:22.563Z,99936.34
2023-04-13T21:00:49.461Z,99938.97
2023-04-13T21:03:16.778Z,99930.03
2023-04-13T21:05:43.739Z,99933.91
2023-04-13T21:08:11.461Z,99936.00
2023-04-13T21:10:38.387Z,99928.53
2023-04-13T21:13:06.004Z,99929.03
2023-04-13T21:15:32.860Z,99925.75
2023-04-13T21:17:59.718Z,99930.34
2023-04-13T21:20:26.510Z,99932.00
2023-04-13T21:22:53.457Z,99930.81
2023-04-13T21:25:20.588Z,99922.06
2023-04-13T21:27:50.607Z,99928.53
2023-04-13T21:30:17.666Z,99928.53
2023-04-13T21:32:44.949Z,99922.75
2023-04-13T21:35:12.219Z,99918.38
2023-04-13T21:37:39.610Z,99923.06
2023-04-13T21:40:07.440Z,99926.78
2023-04-13T21:42:34.305Z,99926.78
2023-04-13T21:45:01.227Z,99930.84
2023-04-13T21:47:28.402Z,99929.53
2023-04-13T21:49:57.535Z,99921.94
2023-04-13T21:52:25.563Z,99924.91
2023-04-13T21:54:52.588Z,99921.81
2023-04-13T21:57:19.552Z,99931.53
2023-04-13T21:59:46.449Z,99933.94
2023-04-13T22:02:13.424Z,99920.69
2023-04-13T22:04:40.697Z,99919.34
2023-04-13T22:07:07.676Z,99916.28
2023-04-13T22:09:34.490Z,99923.28
2023-04-13T22:12:01.731Z,99915.66
2023-04-13T22:14:28.697Z,99917.78
2023-04-13T22:16:55.634Z,99912.06
2023-04-13T22:19:22.717Z,99913.22
2023-04-13T22:21:49.561Z,99912.09
2023-04-13T22:24:16.527Z,99911.13
2023-04-13T22:26:43.450Z,99916.50
2023-04-13T22:29:10.522Z,99913.75
2023-04-13T22:31:37.482Z,99910.53
2023-04-13T22:34:04.410Z,99906.97
2023-04-13T22:36:31.245Z,99913.94
2023-04-13T22:38:58.276Z,99906.84
2023-04-13T22:41:25.504Z,99907.66
2023-04-13T22:43:52.312Z,99901.66
2023-04-13T22:46:19.203Z,99904.09
2023-04-13T22:48:46.218Z,99900.97
2023-04-13T22:51:13.144Z,99901.34
2023-04-13T22:53:39.976Z,99902.28
2023-04-13T22:56:07.061Z,99910.09
2023-04-13T22:58:33.954Z,99905.91
2023-04-13T23:01:00.854Z,99901.69
2023-04-13T23:03:27.753Z,99898.31
2023-04-13T23:05:54.670Z,99899.75
2023-04-13T23:08:21.623Z,99904.81
2023-04-13T23:10:48.474Z,99921.31
2023-04-13T23:13:15.732Z,99909.50
2023-04-13T23:15:42.531Z,99907.03
2023-04-13T23:18:09.496Z,99906.22
2023-04-13T23:20:36.341Z,99893.28
2023-04-13T23:23:03.203Z,99893.44
2023-04-13T23:25:30.007Z,99888.16
2023-04-13T23:27:56.850Z,99891.53
2023-04-13T23:30:23.710Z,99894.63
2023-04-13T23:32:50.711Z,99895.91
2023-04-13T23:35:17.776Z,99901.56
2023-04-13T23:37:45.396Z,99890.06
2023-04-13T23:40:12.782Z,99891.66
2023-04-13T23:42:41.107Z,99895.41
2023-04-13T23:45:08.421Z,99892.97
2023-04-13T23:47:35.670Z,99893.63
2023-04-13T23:50:03.213Z,99899.59
2023-04-13T23:52:30.153Z,99895.19
2023-04-13T23:54:57.544Z,99901.47
2023-04-13T23:57:24.502Z,99894.75
2023-04-13T23:59:57.570Z,99891.19
